Terminal Aerodrome Forecast
Issued by NWS

Home | Current Version | Previous Version | Graphics & Text | Print | Product List | Glossary On
Versions: 1 2 3 4 5 6 7 8 9 10 11 12 13 14 15 16 17 18 19 20 21 22 23 24
725
FTUS43 KICT 032323
TAFCNU
TAF
KCNU 032323Z 0400/0424 15005KT P6SM -RA OVC035
     FM040500 VRB03KT 5SM -RA OVC015
     FM041200 00000KT 3SM BR OVC007
     FM041700 29004KT P6SM SCT050=

USA.gov is the U.S. government's official web portal to all federal, state and local government web resources and services.